Victoria Regional Airport Victoria US
ICAO: KVCT
IATA: VCT
Category: Medium
Scheduled Services: Yes

Elevation: 115 ft
TransAlt. 18000 ft.

Airport Communications:
ASOS:119.025
HOUSTON CNTR:135.05
MONTGOMERY CO RDO:122.2
CTAF/UNICOM:122.7

KVCT Zoom In..

If you have problems with the map follow the link
https://www.worldairports.se/pages/airport.php?
ICAO=KVCT

Runways:

(A) RW 13L length 9111 ft width 150 ft
ILS 111.50 / hdg 126

(B) RW 13R length 4643 ft width 150 ft
---- / hdg 126

(C) RW 18 length 4908 ft width 75 ft
---- / hdg 174

(D) RW 31L length 4643 ft width 150 ft
---- / hdg 306

(E) RW 31R length 9111 ft width 150 ft
---- / hdg 306

(F) RW 36 length 4908 ft width 75 ft
---- / hdg 354

Location; KVCT
Day. 12 / Time. 08.51 Zulu
* Altimeter: 30.34
* Temperature: 08° c. 46.4°f.
* Wind from: 320° Speed 03 kn.
Dewpoint: 06° c.
Visibility: 10 Statute Miles.
Clouds: Overcast 4700 ft.

KVCT 120851Z AUTO 32003KT 10SM OVC047 08/06 A3034 RMK AO2 SLP273 T00780056 58015


Wind From 320°
Speed 03 kn.

 
 
jpsmedia worldairports.se 2019   terms of use